Time;durP1;ratioP1;P1;durP2;ratioP2;P2;SDS_P1;SDS_P2;PMS_P1;PMS_P2;Temp;Humidity;BMP_temperature;BMP_pressure;BME280_temperature;BME280_humidity;BME280_pressure;Samples;Min_cycle;Max_cycle;Signal;HPM_P1;HPM_P2
2021/04/13 00:02:45;;;;;;;5.03;3.40;;;2.90;99.90;;;;;;5074169;28;20228;-66
2021/04/13 00:05:24;;;;;;;6.23;3.50;;;3.00;99.90;;;;;;5072914;28;20232;-66
2021/04/13 00:07:52;;;;;;;6.10;4.10;;;2.90;99.90;;;;;;5072513;28;20592;-66
2021/04/13 00:10:20;;;;;;;4.90;3.90;;;2.90;99.90;;;;;;5072913;28;20219;-66
2021/04/13 00:12:47;;;;;;;6.43;4.93;;;2.90;99.90;;;;;;5072681;28;20204;-66
2021/04/13 00:15:17;;;;;;;5.80;4.13;;;2.70;99.90;;;;;;5072983;28;20221;-65
2021/04/13 00:17:46;;;;;;;6.50;5.57;;;2.60;99.90;;;;;;5073179;28;20211;-66
2021/04/13 00:20:19;;;;;;;6.00;3.97;;;2.60;99.90;;;;;;5073211;28;20220;-65
2021/04/13 00:22:46;;;;;;;6.50;4.27;;;2.50;99.90;;;;;;5073453;28;20229;-67
2021/04/13 00:25:22;;;;;;;12.67;9.47;;;2.60;99.90;;;;;;5073484;28;20228;-65
2021/04/13 00:27:49;;;;;;;7.03;4.40;;;2.60;99.90;;;;;;5073104;28;20345;-65
2021/04/13 00:30:19;;;;;;;7.90;4.60;;;2.60;99.90;;;;;;5073365;28;20204;-67
2021/04/13 00:32:55;;;;;;;5.07;3.87;;;2.60;99.90;;;;;;5072725;28;20208;-67
2021/04/13 00:35:31;;;;;;;10.23;7.57;;;2.60;99.90;;;;;;5072007;28;20236;-66
2021/04/13 00:38:18;;;;;;;5.23;4.27;;;2.60;99.90;;;;;;5072185;28;20208;-67
2021/04/13 00:40:47;;;;;;;4.47;3.70;;;2.50;99.90;;;;;;5072155;28;20212;-65
2021/04/13 00:43:15;;;;;;;5.90;4.10;;;2.50;99.90;;;;;;5071561;28;20221;-66
2021/04/13 00:45:45;;;;;;;4.63;3.47;;;2.50;99.90;;;;;;5071497;28;20228;-66
2021/04/13 00:48:14;;;;;;;8.07;3.70;;;2.50;99.90;;;;;;5071410;28;20601;-66
2021/04/13 00:50:45;;;;;;;9.20;5.47;;;2.50;99.90;;;;;;5071337;28;20558;-66
2021/04/13 00:53:16;;;;;;;6.13;4.57;;;2.40;99.90;;;;;;5074793;28;20688;-66
2021/04/13 00:55:50;;;;;;;9.20;6.83;;;2.40;99.90;;;;;;5075106;28;20229;-66
2021/04/13 00:58:21;;;;;;;6.57;4.50;;;2.30;99.90;;;;;;5074797;28;20227;-67
2021/04/13 01:00:51;;;;;;;8.10;5.30;;;2.40;99.90;;;;;;5075734;28;20189;-66
2021/04/13 01:03:18;;;;;;;8.63;6.07;;;2.40;99.90;;;;;;5076177;28;20229;-66
2021/04/13 01:05:48;;;;;;;6.47;4.47;;;2.40;99.90;;;;;;5075780;28;20756;-66
2021/04/13 01:08:21;;;;;;;10.57;7.27;;;2.30;99.90;;;;;;5075666;28;20295;-65
2021/04/13 01:10:48;;;;;;;5.40;3.57;;;2.40;99.90;;;;;;5074686;28;20228;-66
2021/04/13 01:13:16;;;;;;;12.80;7.00;;;2.40;99.90;;;;;;5074537;28;20208;-66
2021/04/13 01:15:47;;;;;;;6.13;4.30;;;2.30;99.90;;;;;;5074372;28;20225;-65
2021/04/13 01:18:22;;;;;;;4.57;3.50;;;2.30;99.90;;;;;;5075014;28;20216;-66
2021/04/13 01:20:55;;;;;;;7.10;4.20;;;2.30;99.90;;;;;;5075284;28;20200;-66
2021/04/13 01:23:25;;;;;;;8.10;5.00;;;2.30;99.90;;;;;;5074724;28;20225;-66
2021/04/13 01:25:58;;;;;;;6.63;4.10;;;2.30;99.90;;;;;;5074721;28;20232;-65
2021/04/13 01:28:27;;;;;;;7.53;5.17;;;2.30;99.90;;;;;;5074871;28;20581;-66
2021/04/13 01:30:57;;;;;;;4.80;3.60;;;2.30;99.90;;;;;;5076222;28;20201;-66
2021/04/13 01:33:35;;;;;;;4.00;3.37;;;2.20;99.90;;;;;;5075968;28;20664;-66
2021/04/13 01:36:15;;;;;;;8.93;5.77;;;2.30;99.90;;;;;;5075151;28;20339;-66
2021/04/13 01:38:58;;;;;;;5.60;3.97;;;2.30;99.90;;;;;;5075328;28;20610;-65
2021/04/13 01:41:33;;;;;;;5.03;3.67;;;2.30;99.90;;;;;;5076064;28;20279;-67
2021/04/13 01:44:00;;;;;;;4.47;3.50;;;2.40;99.90;;;;;;5077999;28;20255;-66
2021/04/13 01:46:27;;;;;;;5.43;3.57;;;2.30;99.90;;;;;;5079839;28;20233;-67
2021/04/13 01:48:54;;;;;;;9.93;5.60;;;2.30;99.90;;;;;;5079647;28;20258;-65
2021/04/13 01:51:21;;;;;;;7.73;4.73;;;2.20;99.90;;;;;;5076992;28;20217;-67
2021/04/13 01:53:50;;;;;;;6.90;3.90;;;2.20;99.90;;;;;;5079077;28;20203;-65
2021/04/13 01:56:20;;;;;;;6.13;3.97;;;2.20;99.90;;;;;;5078201;28;20225;-66
2021/04/13 01:58:58;;;;;;;11.60;5.20;;;2.00;99.90;;;;;;5075177;28;20205;-66
2021/04/13 02:01:29;;;;;;;9.20;5.40;;;2.00;99.90;;;;;;5074503;28;20204;-66
2021/04/13 02:04:03;;;;;;;10.67;5.70;;;2.00;99.90;;;;;;5072799;28;20232;-65
2021/04/13 02:06:35;;;;;;;7.57;4.60;;;2.00;99.90;;;;;;5073363;28;20622;-66
2021/04/13 02:09:10;;;;;;;7.17;4.50;;;1.90;99.90;;;;;;5073305;28;20209;-67
2021/04/13 02:11:38;;;;;;;8.60;4.40;;;1.90;99.90;;;;;;5073923;28;20200;-66
2021/04/13 02:14:09;;;;;;;8.47;5.33;;;1.90;99.90;;;;;;5073362;28;20201;-66
2021/04/13 02:16:45;;;;;;;6.23;4.20;;;1.90;99.90;;;;;;5073699;28;20274;-65
2021/04/13 02:19:12;;;;;;;6.97;4.47;;;1.80;99.90;;;;;;5073638;28;20212;-65
2021/04/13 02:21:42;;;;;;;6.97;4.30;;;1.80;99.90;;;;;;5073621;28;20251;-66
2021/04/13 02:24:10;;;;;;;6.13;3.70;;;1.90;99.90;;;;;;5072852;28;20412;-66
2021/04/13 02:26:42;;;;;;;5.00;3.80;;;1.90;99.90;;;;;;5073443;28;20233;-66
2021/04/13 02:29:10;;;;;;;6.97;4.07;;;1.80;99.90;;;;;;5073255;28;20221;-64
2021/04/13 02:31:37;;;;;;;6.97;4.37;;;1.80;99.90;;;;;;5073002;28;20208;-64
2021/04/13 02:34:10;;;;;;;4.63;3.90;;;1.80;99.90;;;;;;5072949;28;20212;-65
2021/04/13 02:36:40;;;;;;;6.23;4.00;;;1.80;99.90;;;;;;5073307;28;20689;-67
2021/04/13 02:39:11;;;;;;;5.73;4.20;;;1.80;99.90;;;;;;5072983;28;20366;-64
2021/04/13 02:41:46;;;;;;;6.30;4.17;;;1.90;99.90;;;;;;5073012;28;20213;-65
2021/04/13 02:44:18;;;;;;;5.73;4.30;;;2.00;99.90;;;;;;5072731;28;20236;-65
2021/04/13 02:46:45;;;;;;;7.37;4.53;;;2.00;99.90;;;;;;5072743;28;20229;-65
2021/04/13 02:49:13;;;;;;;7.17;4.30;;;2.00;99.90;;;;;;5073361;28;20216;-66
2021/04/13 02:51:46;;;;;;;7.10;4.33;;;2.00;99.90;;;;;;5072993;28;20741;-65
2021/04/13 02:54:17;;;;;;;6.20;4.10;;;2.00;99.90;;;;;;5073358;28;20250;-66
2021/04/13 02:56:47;;;;;;;5.77;4.43;;;2.10;99.90;;;;;;5072857;28;20228;-66
2021/04/13 02:59:23;;;;;;;6.13;3.87;;;2.10;99.90;;;;;;5072863;28;20208;-65
2021/04/13 03:01:53;;;;;;;7.17;4.37;;;2.10;99.90;;;;;;5072837;28;20204;-66
2021/04/13 03:04:20;;;;;;;6.07;3.90;;;2.10;99.90;;;;;;5072853;28;20456;-65
2021/04/13 03:06:50;;;;;;;4.50;3.73;;;2.10;99.90;;;;;;5096799;22;20603;-65
2021/04/13 03:09:19;;;;;;;6.23;4.20;;;2.00;99.90;;;;;;5071949;28;20208;-65
2021/04/13 03:11:47;;;;;;;7.47;4.43;;;1.90;99.90;;;;;;5071406;28;20385;-67
2021/04/13 03:14:17;;;;;;;4.90;4.20;;;1.90;99.90;;;;;;5071214;28;20486;-65
2021/04/13 03:16:46;;;;;;;5.27;4.17;;;1.90;99.90;;;;;;5071151;28;20629;-66
2021/04/13 03:19:14;;;;;;;5.50;4.00;;;1.90;99.90;;;;;;5071409;28;20228;-65
2021/04/13 03:21:43;;;;;;;8.97;6.20;;;1.90;99.90;;;;;;5071355;28;20243;-67
2021/04/13 03:24:13;;;;;;;9.20;5.33;;;2.00;99.90;;;;;;5071532;28;20696;-65
2021/04/13 03:26:46;;;;;;;6.27;4.77;;;2.00;99.90;;;;;;5071510;28;20229;-66
2021/04/13 03:29:16;;;;;;;5.50;4.37;;;2.00;99.90;;;;;;5071250;28;20216;-65
2021/04/13 03:31:43;;;;;;;6.63;4.90;;;2.00;99.90;;;;;;5071258;28;20214;-65
2021/04/13 03:34:10;;;;;;;5.17;4.67;;;2.00;99.90;;;;;;5071168;28;20209;-65
2021/04/13 03:36:37;;;;;;;4.80;4.27;;;2.00;99.90;;;;;;5071009;28;20716;-66
2021/04/13 03:39:10;;;;;;;5.83;3.90;;;2.00;99.90;;;;;;5070861;28;20283;-66
2021/04/13 03:41:41;;;;;;;6.67;4.40;;;2.00;99.90;;;;;;5071072;28;20259;-66
2021/04/13 03:44:08;;;;;;;5.93;4.73;;;2.00;99.90;;;;;;5070789;28;20221;-66
2021/04/13 03:46:37;;;;;;;5.33;4.57;;;2.00;99.90;;;;;;5070963;28;20639;-66
2021/04/13 03:49:07;;;;;;;5.43;4.90;;;2.00;99.90;;;;;;5070907;28;20232;-66
2021/04/13 03:51:36;;;;;;;7.17;5.27;;;1.90;99.90;;;;;;5070896;28;20227;-66
2021/04/13 03:54:19;;;;;;;7.20;5.60;;;1.90;99.90;;;;;;5070955;28;20208;-66
2021/04/13 03:56:48;;;;;;;6.47;5.40;;;1.80;99.90;;;;;;5070957;28;20225;-66
2021/04/13 03:59:19;;;;;;;6.13;5.30;;;1.70;99.90;;;;;;5070808;28;20211;-66
2021/04/13 04:01:47;;;;;;;6.50;5.37;;;1.70;99.90;;;;;;5070786;28;20209;-66
2021/04/13 04:04:22;;;;;;;8.03;6.07;;;1.50;99.90;;;;;;5070957;28;20225;-66
2021/04/13 04:06:54;;;;;;;7.00;5.60;;;1.40;99.90;;;;;;5070908;28;20236;-65
2021/04/13 04:09:34;;;;;;;6.07;5.17;;;1.30;99.90;;;;;;5071225;28;20687;-65
2021/04/13 04:12:03;;;;;;;5.83;5.07;;;1.30;99.90;;;;;;5071202;28;20215;-66
2021/04/13 04:14:30;;;;;;;8.87;5.40;;;1.20;99.90;;;;;;5070700;28;20211;-66
2021/04/13 04:17:02;;;;;;;7.00;5.03;;;1.20;99.90;;;;;;5070632;28;20775;-66
2021/04/13 04:19:30;;;;;;;6.20;4.40;;;1.10;99.90;;;;;;5070677;28;20730;-65
2021/04/13 04:21:59;;;;;;;5.60;4.67;;;1.10;99.90;;;;;;5070611;28;20282;-65
2021/04/13 04:24:30;;;;;;;8.50;4.90;;;1.10;99.90;;;;;;5070507;28;20357;-65
2021/04/13 04:26:59;;;;;;;5.33;4.60;;;1.10;99.90;;;;;;5072107;28;20231;-65
2021/04/13 04:29:41;;;;;;;6.30;5.00;;;1.10;99.90;;;;;;5074724;28;20205;-65
2021/04/13 04:32:18;;;;;;;6.50;5.00;;;1.00;99.90;;;;;;5075038;28;20235;-65
2021/04/13 04:34:53;;;;;;;8.13;5.03;;;1.00;99.90;;;;;;5074344;28;20208;-65
2021/04/13 04:37:29;;;;;;;7.33;5.03;;;0.90;99.90;;;;;;5074468;28;20549;-65
2021/04/13 04:40:35;;;;;;;6.43;5.20;;;0.90;99.90;;;;;;5074766;28;20215;-65
2021/04/13 04:43:04;;;;;;;11.37;6.97;;;0.90;99.90;;;;;;5074276;28;20233;-65
2021/04/13 04:45:47;;;;;;;10.33;5.63;;;1.00;99.90;;;;;;5073855;28;20282;-65
2021/04/13 04:48:28;;;;;;;8.40;6.30;;;1.10;99.90;;;;;;5074462;28;20204;-65
2021/04/13 04:50:56;;;;;;;5.63;5.00;;;1.20;99.90;;;;;;5074351;28;20209;-65
2021/04/13 04:53:23;;;;;;;7.77;5.30;;;1.30;99.90;;;;;;5074106;28;20222;-65
2021/04/13 04:55:51;;;;;;;11.30;5.87;;;1.30;99.90;;;;;;5073758;28;20263;-66
2021/04/13 04:58:18;;;;;;;9.70;6.07;;;1.40;99.90;;;;;;5074246;28;20220;-66
2021/04/13 05:00:46;;;;;;;11.20;5.80;;;1.40;99.90;;;;;;5074038;28;20205;-66
2021/04/13 05:03:12;;;;;;;9.00;6.60;;;1.40;99.90;;;;;;5074096;28;20225;-66
2021/04/13 05:05:39;;;;;;;8.93;6.80;;;1.50;99.90;;;;;;5073845;28;20286;-66
2021/04/13 05:08:05;;;;;;;7.97;6.23;;;1.60;99.90;;;;;;5073874;28;20201;-66
2021/04/13 05:10:32;;;;;;;13.60;9.10;;;1.60;99.90;;;;;;5074154;28;20208;-66
2021/04/13 05:12:58;;;;;;;12.30;6.90;;;1.70;99.90;;;;;;5074414;28;20209;-66
2021/04/13 05:15:24;;;;;;;12.50;7.10;;;1.80;99.90;;;;;;5073640;28;20235;-66
2021/04/13 05:17:51;;;;;;;8.73;6.30;;;1.80;99.90;;;;;;5073532;28;20212;-65
2021/04/13 05:20:18;;;;;;;11.73;8.03;;;1.90;99.90;;;;;;5073634;28;20212;-66
2021/04/13 05:22:44;;;;;;;13.83;8.83;;;1.90;99.90;;;;;;5073805;28;20239;-65
2021/04/13 05:25:11;;;;;;;13.40;8.10;;;1.90;99.90;;;;;;5073532;28;20232;-66
2021/04/13 05:27:37;;;;;;;12.60;8.60;;;2.10;99.90;;;;;;5073506;28;20695;-66
2021/04/13 05:30:05;;;;;;;15.50;10.57;;;2.20;99.90;;;;;;5073798;28;20223;-66
2021/04/13 05:32:31;;;;;;;18.70;10.53;;;2.40;99.90;;;;;;5073371;28;20742;-66
2021/04/13 05:34:58;;;;;;;13.53;9.60;;;2.50;99.90;;;;;;5073360;28;20213;-66
2021/04/13 05:37:28;;;;;;;9.13;6.97;;;2.60;99.90;;;;;;5073155;28;20208;-66
2021/04/13 05:39:54;;;;;;;14.20;6.63;;;2.80;99.90;;;;;;5073423;28;20799;-66
2021/04/13 05:42:25;;;;;;;11.00;6.20;;;3.00;99.90;;;;;;5073387;28;20224;-67
2021/04/13 05:44:53;;;;;;;12.90;7.27;;;3.90;99.90;;;;;;5072729;28;20267;-68
2021/04/13 05:47:20;;;;;;;9.00;5.60;;;5.60;99.90;;;;;;5073276;28;20240;-67
2021/04/13 05:49:46;;;;;;;6.73;5.37;;;7.30;99.90;;;;;;5075715;28;20204;-67
2021/04/13 05:52:13;;;;;;;6.47;5.10;;;8.80;99.00;;;;;;5076848;28;20201;-67
2021/04/13 05:54:39;;;;;;;11.90;5.50;;;9.90;93.90;;;;;;5076734;28;20209;-68
2021/04/13 05:57:07;;;;;;;9.00;6.10;;;10.90;90.80;;;;;;5074459;28;20201;-68
2021/04/13 05:59:33;;;;;;;11.90;5.90;;;12.00;85.60;;;;;;5073071;28;20209;-66
2021/04/13 06:01:59;;;;;;;8.60;5.43;;;12.90;81.90;;;;;;5073551;28;20217;-67
2021/04/13 06:04:26;;;;;;;9.80;6.47;;;13.70;78.30;;;;;;5072645;28;20221;-67
2021/04/13 06:06:52;;;;;;;9.87;6.60;;;14.60;74.00;;;;;;5072367;28;20240;-66
2021/04/13 06:09:20;;;;;;;9.53;6.47;;;15.30;70.90;;;;;;5072862;28;20208;-67
2021/04/13 06:11:47;;;;;;;11.67;8.17;;;16.10;67.70;;;;;;5072879;28;20237;-67
2021/04/13 06:14:14;;;;;;;7.53;5.63;;;16.60;63.60;;;;;;5072720;28;20607;-67
2021/04/13 06:16:43;;;;;;;10.27;7.40;;;17.10;60.70;;;;;;5072975;28;20319;-67
2021/04/13 06:19:10;;;;;;;9.23;8.27;;;17.60;59.90;;;;;;5072690;28;20205;-67
2021/04/13 06:21:37;;;;;;;9.33;7.33;;;18.00;58.60;;;;;;5072495;28;20236;-67
2021/04/13 06:24:04;;;;;;;8.87;6.43;;;18.30;57.10;;;;;;5072502;28;20316;-67
2021/04/13 06:26:31;;;;;;;9.70;7.97;;;18.50;56.70;;;;;;5072708;28;20712;-68
2021/04/13 06:28:57;;;;;;;8.00;5.93;;;18.70;55.80;;;;;;5072957;28;20212;-67
2021/04/13 06:31:23;;;;;;;7.10;6.40;;;19.00;55.10;;;;;;5072656;28;20676;-67
2021/04/13 06:33:49;;;;;;;6.77;5.20;;;19.20;54.70;;;;;;5072303;28;20475;-67
2021/04/13 06:36:20;;;;;;;9.18;5.50;;;19.60;54.00;;;;;;5072698;28;20233;-68
2021/04/13 06:38:46;;;;;;;9.93;5.90;;;19.90;52.80;;;;;;5072927;28;20613;-68
2021/04/13 06:41:31;;;;;;;6.67;4.67;;;20.20;52.40;;;;;;5073530;28;20204;-68
2021/04/13 06:44:40;;;;;;;6.72;5.40;;;20.20;50.90;;;;;;5072858;28;20648;-68
2021/04/13 06:47:14;;;;;;;6.88;4.68;;;20.00;51.10;;;;;;5073127;28;20205;-67
2021/04/13 06:49:58;;;;;;;6.90;5.07;;;20.20;51.00;;;;;;5071644;28;20204;-68
2021/04/13 06:52:34;;;;;;;7.70;4.72;;;20.30;50.50;;;;;;5072237;28;20213;-68
2021/04/13 06:55:14;;;;;;;5.07;4.50;;;20.70;50.00;;;;;;5072208;28;20317;-68
2021/04/13 06:58:00;;;;;;;6.22;4.60;;;21.10;49.10;;;;;;5071949;28;20220;-68
2021/04/13 07:00:48;;;;;;;5.05;4.38;;;21.40;48.90;;;;;;5072140;28;20201;-68
2021/04/13 07:03:23;;;;;;;7.80;4.53;;;21.60;48.70;;;;;;5072256;28;20229;-68
2021/04/13 07:05:53;;;;;;;5.50;4.63;;;22.10;48.00;;;;;;5072046;28;20228;-68
2021/04/13 07:08:25;;;;;;;5.07;4.57;;;22.60;47.10;;;;;;5072081;28;20626;-67
2021/04/13 07:10:58;;;;;;;5.35;4.32;;;22.90;44.80;;;;;;5071964;28;20680;-69
2021/04/13 07:13:49;;;;;;;5.68;4.70;;;22.60;45.40;;;;;;5071703;28;20212;-68
2021/04/13 07:16:24;;;;;;;6.03;4.95;;;22.60;45.50;;;;;;5072322;28;20221;-67
2021/04/13 07:18:58;;;;;;;6.25;4.53;;;22.80;45.40;;;;;;5072118;28;20209;-67
2021/04/13 07:21:28;;;;;;;7.22;4.90;;;22.90;44.90;;;;;;5072039;28;20216;-68
2021/04/13 07:23:59;;;;;;;7.05;5.32;;;22.40;45.20;;;;;;5071619;28;20229;-68
2021/04/13 07:26:32;;;;;;;5.95;5.10;;;22.00;46.00;;;;;;5071693;28;20224;-68
2021/04/13 07:29:05;;;;;;;6.65;5.00;;;22.00;45.50;;;;;;5071671;28;20319;-69
2021/04/13 07:31:41;;;;;;;7.57;5.05;;;21.90;44.60;;;;;;5071553;28;20215;-69
2021/04/13 07:34:07;;;;;;;5.45;4.82;;;21.00;45.70;;;;;;5071323;28;20242;-69
2021/04/13 07:36:39;;;;;;;6.43;4.63;;;20.80;46.50;;;;;;5071316;28;20236;-69
2021/04/13 07:39:05;;;;;;;8.02;5.07;;;21.30;47.30;;;;;;5070946;28;20208;-65
2021/04/13 07:41:38;;;;;;;6.47;5.47;;;21.90;46.50;;;;;;5069718;28;20220;-68
2021/04/13 07:44:08;;;;;;;5.40;4.72;;;22.50;45.40;;;;;;5071004;28;20233;-69
2021/04/13 07:46:48;;;;;;;10.02;5.13;;;23.00;44.90;;;;;;5071143;28;20700;-70
2021/04/13 07:49:21;;;;;;;6.20;5.55;;;23.50;44.10;;;;;;5071061;28;20208;-67
2021/04/13 07:51:57;;;;;;;7.57;5.65;;;24.10;43.80;;;;;;5071050;28;20216;-68
2021/04/13 07:54:45;;;;;;;8.88;5.80;;;24.50;42.20;;;;;;5070950;28;20211;-68
2021/04/13 07:57:19;;;;;;;6.93;5.47;;;24.60;41.50;;;;;;5070965;28;20255;-68
2021/04/13 08:00:05;;;;;;;8.07;4.85;;;24.80;41.70;;;;;;5071148;28;20263;-69
2021/04/13 08:02:32;;;;;;;5.55;4.97;;;24.60;39.70;;;;;;5071057;28;20209;-69
2021/04/13 08:05:00;;;;;;;8.15;6.05;;;23.40;40.60;;;;;;5070435;28;20224;-67
2021/04/13 08:07:29;;;;;;;5.95;5.43;;;22.30;42.30;;;;;;5071265;28;20212;-66
2021/04/13 08:10:10;;;;;;;5.72;5.22;;;22.40;42.70;;;;;;5071298;28;20207;-66
2021/04/13 08:12:52;;;;;;;6.15;5.45;;;22.90;42.10;;;;;;5071508;28;20205;-66
2021/04/13 08:15:33;;;;;;;5.82;5.30;;;22.90;42.10;;;;;;5071807;28;20315;-64
2021/04/13 08:18:09;;;;;;;6.15;5.55;;;21.90;42.60;;;;;;5071613;28;20236;-65
2021/04/13 08:20:36;;;;;;;6.35;5.47;;;19.70;44.30;;;;;;5071314;28;20204;-67
2021/04/13 08:23:06;;;;;;;5.80;5.30;;;17.30;47.10;;;;;;5071204;28;20224;-67
2021/04/13 08:25:47;;;;;;;7.03;5.70;;;15.10;50.50;;;;;;5070841;28;20221;-66
2021/04/13 08:28:28;;;;;;;7.23;5.70;;;13.40;54.50;;;;;;5070826;28;20201;-66
2021/04/13 08:34:22;;;;;;;7.07;6.23;;;11.20;59.40;;;;;;5071094;28;20199;-65
2021/04/13 08:36:53;;;;;;;7.20;6.40;;;10.50;62.20;;;;;;5070439;28;20294;-66
2021/04/13 08:39:27;;;;;;;7.50;6.67;;;10.60;63.40;;;;;;5070532;28;20258;-66
2021/04/13 08:42:05;;;;;;;7.33;6.60;;;11.00;63.80;;;;;;5070668;28;20209;-64
2021/04/13 08:44:37;;;;;;;7.20;6.10;;;11.40;63.60;;;;;;5070180;28;20235;-64
2021/04/13 08:47:11;;;;;;;6.77;5.40;;;11.70;61.60;;;;;;5070726;28;20211;-64
2021/04/13 08:49:48;;;;;;;6.77;5.83;;;11.70;60.50;;;;;;5070911;28;20211;-67
2021/04/13 08:52:29;;;;;;;5.70;5.20;;;11.80;60.10;;;;;;5070728;28;20209;-65
2021/04/13 08:55:05;;;;;;;7.07;5.50;;;11.90;58.70;;;;;;5070140;28;20295;-66
2021/04/13 08:57:34;;;;;;;7.53;6.07;;;11.90;58.60;;;;;;5070287;28;20698;-65
2021/04/13 09:00:04;;;;;;;6.57;5.40;;;12.10;59.10;;;;;;5070530;28;20214;-67
2021/04/13 09:02:35;;;;;;;7.60;6.50;;;12.40;57.40;;;;;;5070588;28;20243;-67
2021/04/13 09:05:12;;;;;;;9.10;6.93;;;12.80;58.90;;;;;;5094929;22;20241;31
2021/04/13 09:07:52;;;;;;;6.70;6.00;;;12.80;60.90;;;;;;5029354;28;20353;-69
2021/04/13 09:10:31;;;;;;;9.90;6.30;;;13.20;59.50;;;;;;5031093;28;20186;-69
2021/04/13 09:13:15;;;;;;;7.90;7.10;;;13.70;59.40;;;;;;5032403;28;20206;-69
2021/04/13 09:15:57;;;;;;;7.20;5.93;;;13.90;58.80;;;;;;5040306;28;20232;-69
2021/04/13 09:18:30;;;;;;;7.60;5.80;;;13.90;57.80;;;;;;5054412;28;20238;-69
2021/04/13 09:21:11;;;;;;;6.77;6.03;;;14.00;55.50;;;;;;5054962;28;20445;-69
2021/04/13 09:23:46;;;;;;;6.60;5.90;;;13.60;55.50;;;;;;5055162;28;20221;-69
2021/04/13 09:26:21;;;;;;;7.80;5.83;;;13.00;55.80;;;;;;5054739;28;20229;-69
2021/04/13 09:28:51;;;;;;;6.97;5.57;;;12.50;57.30;;;;;;5054663;28;20584;-69
2021/04/13 09:31:21;;;;;;;6.57;5.87;;;12.00;58.50;;;;;;5054717;28;20224;-69
2021/04/13 09:33:48;;;;;;;8.93;5.70;;;12.00;59.20;;;;;;5054533;28;20202;-69
2021/04/13 09:36:33;;;;;;;7.17;5.43;;;12.00;58.40;;;;;;5054724;28;20233;-69
2021/04/13 09:39:17;;;;;;;7.27;5.20;;;12.50;57.40;;;;;;5054598;28;20202;-69
2021/04/13 09:42:00;;;;;;;5.90;5.13;;;13.20;56.10;;;;;;5054196;28;20267;-69
2021/04/13 09:44:50;;;;;;;6.80;4.90;;;13.70;53.90;;;;;;5053812;28;20229;-69
2021/04/13 09:47:32;;;;;;;5.90;4.70;;;13.80;52.90;;;;;;5041181;28;20226;-69
2021/04/13 09:50:05;;;;;;;6.53;4.30;;;13.80;51.90;;;;;;5053637;28;20677;-69
2021/04/13 09:52:50;;;;;;;4.93;4.10;;;13.10;52.20;;;;;;5053953;28;20292;-69
2021/04/13 09:55:31;;;;;;;4.70;4.20;;;12.40;53.20;;;;;;5053789;28;20209;-69
2021/04/13 09:58:23;;;;;;;5.00;4.50;;;11.70;54.40;;;;;;5053700;28;20209;-68
2021/04/13 10:00:57;;;;;;;4.30;3.87;;;11.60;55.10;;;;;;5053489;28;20673;-68
2021/04/13 10:03:54;;;;;;;5.43;4.10;;;11.80;53.90;;;;;;5053820;28;20231;-69
2021/04/13 10:06:27;;;;;;;4.80;4.00;;;12.10;52.30;;;;;;5053598;28;20237;-69
2021/04/13 10:09:03;;;;;;;6.97;4.67;;;12.50;50.90;;;;;;5053849;28;20266;-70
2021/04/13 10:11:58;;;;;;;6.57;5.40;;;13.10;50.10;;;;;;5054548;28;20581;-69
2021/04/13 10:14:47;;;;;;;4.37;3.43;;;13.50;48.60;;;;;;5054861;28;20209;-70
2021/04/13 10:17:26;;;;;;;3.30;3.00;;;13.30;49.10;;;;;;5054558;28;20221;-70
2021/04/13 10:20:17;;;;;;;4.07;3.43;;;12.60;49.00;;;;;;5054144;28;20711;-69
2021/04/13 10:22:55;;;;;;;5.17;3.60;;;12.00;49.90;;;;;;5054126;28;20202;-69
2021/04/13 10:26:01;;;;;;;4.40;4.00;;;11.50;50.20;;;;;;5052396;28;20229;-69
2021/04/13 10:29:07;;;;;;;5.07;3.67;;;11.10;50.90;;;;;;5054723;28;20206;-70
2021/04/13 10:32:01;;;;;;;3.50;3.20;;;11.20;51.20;;;;;;5054361;28;20205;-71
2021/04/13 10:35:06;;;;;;;4.00;3.60;;;11.50;48.80;;;;;;5053841;28;20255;-70
2021/04/13 10:38:15;;;;;;;6.83;3.93;;;11.50;49.50;;;;;;5054355;28;20209;-70
2021/04/13 10:41:06;;;;;;;6.57;4.00;;;11.20;49.80;;;;;;4997273;28;20679;-69
2021/04/13 10:44:22;;;;;;;5.43;3.70;;;10.70;49.90;;;;;;5054127;28;20221;-69
2021/04/13 10:46:52;;;;;;;4.17;3.77;;;10.50;49.30;;;;;;5053628;28;20230;-69
2021/04/13 10:49:41;;;;;;;4.10;3.70;;;10.40;47.00;;;;;;5054509;28;20216;-69
2021/04/13 10:52:38;;;;;;;4.80;3.60;;;10.50;47.20;;;;;;5053154;28;20228;-70
2021/04/13 10:55:20;;;;;;;4.07;3.67;;;10.90;47.20;;;;;;5054320;28;20418;-68
2021/04/13 10:58:25;;;;;;;4.10;3.70;;;11.50;48.00;;;;;;5054367;28;20382;-68
2021/04/13 11:01:33;;;;;;;4.27;3.63;;;12.10;48.10;;;;;;5053539;28;20209;-69
2021/04/13 11:04:43;;;;;;;4.95;3.90;;;12.30;47.30;;;;;;5014511;28;20448;-66
2021/04/13 11:07:55;;;;;;;6.23;4.20;;;12.40;48.00;;;;;;5052096;28;20252;-66
2021/04/13 11:10:49;;;;;;;5.90;4.60;;;12.40;49.80;;;;;;5052416;28;20217;-66
2021/04/13 11:14:00;;;;;;;5.73;4.30;;;12.30;51.70;;;;;;5052180;28;20241;-65
2021/04/13 11:16:57;;;;;;;4.97;4.20;;;12.70;51.70;;;;;;5051991;28;20587;-67
2021/04/13 11:19:26;;;;;;;8.07;4.60;;;13.20;50.50;;;;;;5052071;28;20255;-67
2021/04/13 11:22:26;;;;;;;4.77;4.13;;;13.50;50.00;;;;;;5051785;28;20384;-67
2021/04/13 11:25:15;;;;;;;4.30;3.63;;;13.90;49.00;;;;;;5051414;28;20229;-67
2021/04/13 11:28:21;;;;;;;4.33;3.80;;;13.90;48.90;;;;;;5051419;28;20224;-68
2021/04/13 11:31:38;;;;;;;4.50;3.60;;;13.90;47.40;;;;;;5051826;28;20220;-67
2021/04/13 11:34:39;;;;;;;4.30;3.90;;;13.60;48.00;;;;;;5051853;28;20233;-66
2021/04/13 11:37:29;;;;;;;4.33;3.93;;;13.70;46.80;;;;;;5051917;28;20236;-70
2021/04/13 11:40:14;;;;;;;4.23;3.80;;;13.90;46.80;;;;;;5051362;28;20304;-67
2021/04/13 11:42:42;;;;;;;4.53;3.37;;;13.80;47.60;;;;;;5051565;28;20224;-65
2021/04/13 11:45:25;;;;;;;5.50;3.73;;;13.40;50.60;;;;;;5051718;28;20233;-67
2021/04/13 11:48:00;;;;;;;4.20;3.80;;;12.50;55.40;;;;;;5053325;28;20208;-69
2021/04/13 11:50:31;;;;;;;4.47;3.90;;;11.70;60.40;;;;;;5054637;28;20212;-65
2021/04/13 11:53:03;;;;;;;3.50;3.17;;;11.10;58.90;;;;;;5054352;28;20214;-67
2021/04/13 11:55:47;;;;;;;3.53;3.00;;;10.50;60.20;;;;;;5053657;28;20313;-67
2021/04/13 11:58:19;;;;;;;4.47;3.37;;;10.20;58.20;;;;;;5052432;28;20213;-66
2021/04/13 12:00:46;;;;;;;4.60;3.77;;;9.90;60.90;;;;;;5051978;28;20205;-66
2021/04/13 12:03:35;;;;;;;10.17;3.90;;;9.60;61.00;;;;;;5052096;28;20618;-66
2021/04/13 12:06:06;;;;;;;6.33;3.30;;;9.50;61.40;;;;;;5051685;28;20316;-66
2021/04/13 12:08:50;;;;;;;4.77;3.47;;;9.30;59.80;;;;;;5051673;28;20213;-68
2021/04/13 12:11:42;;;;;;;3.83;3.47;;;9.40;60.60;;;;;;5051244;28;20296;-68
2021/04/13 12:14:38;;;;;;;3.93;3.43;;;9.80;58.40;;;;;;5042500;28;20212;-68
2021/04/13 12:17:31;;;;;;;4.07;3.43;;;10.30;56.90;;;;;;5050942;28;20361;-69
2021/04/13 12:20:33;;;;;;;4.57;3.60;;;10.80;56.80;;;;;;5050972;28;20228;-67
2021/04/13 12:23:01;;;;;;;4.93;3.40;;;11.40;55.70;;;;;;5049343;28;20686;-68
2021/04/13 12:25:39;;;;;;;4.07;3.53;;;11.90;55.20;;;;;;5052039;28;20222;-68
2021/04/13 12:28:08;;;;;;;3.67;3.20;;;12.40;54.00;;;;;;5050898;28;20240;-68
2021/04/13 12:30:58;;;;;;;4.60;3.87;;;12.80;51.10;;;;;;5051157;28;20826;-67
2021/04/13 12:34:00;;;;;;;4.00;3.53;;;13.20;52.20;;;;;;5026660;28;20421;-68
2021/04/13 12:36:50;;;;;;;3.23;2.93;;;13.60;51.30;;;;;;5050625;28;20225;-68
2021/04/13 12:39:41;;;;;;;4.50;3.47;;;14.00;49.30;;;;;;5050889;28;20212;-67
2021/04/13 12:42:25;;;;;;;4.53;3.47;;;14.50;49.00;;;;;;5043848;28;20209;-68
2021/04/13 12:45:36;;;;;;;11.40;10.20;;;14.80;47.30;;;;;;5040995;28;20453;-64
2021/04/13 12:48:15;;;;;;;4.43;3.20;;;15.00;45.20;;;;;;5032187;28;20213;-64
2021/04/13 12:50:44;;;;;;;5.87;2.70;;;14.90;45.40;;;;;;5034752;28;20252;-67
2021/04/13 12:53:12;;;;;;;3.67;2.93;;;14.60;44.50;;;;;;5034970;28;20206;-66
2021/04/13 12:55:40;;;;;;;6.07;2.77;;;14.00;45.60;;;;;;5034308;28;20604;-69
2021/04/13 12:58:12;;;;;;;8.43;3.03;;;13.60;48.10;;;;;;5034614;28;20314;-67
2021/04/13 13:00:43;;;;;;;3.10;2.50;;;13.20;51.10;;;;;;5034631;28;20206;-67
2021/04/13 13:03:18;;;;;;;3.50;2.53;;;12.70;53.50;;;;;;5034423;28;20275;-65
2021/04/13 13:05:45;;;;;;;4.90;2.97;;;12.60;53.80;;;;;;5033817;28;20233;-66
2021/04/13 13:08:17;;;;;;;3.90;2.50;;;12.60;52.90;;;;;;5034015;28;20212;-67
2021/04/13 13:10:47;;;;;;;3.37;2.77;;;12.70;52.10;;;;;;5034059;28;20755;-67
2021/04/13 13:13:19;;;;;;;3.97;2.57;;;12.60;52.70;;;;;;5034442;28;20212;-66
2021/04/13 13:15:47;;;;;;;3.63;2.80;;;12.50;52.10;;;;;;5034138;28;20594;-67
2021/04/13 13:18:17;;;;;;;4.90;2.70;;;12.60;51.40;;;;;;5034087;28;20210;-67
2021/04/13 13:20:44;;;;;;;3.97;2.80;;;12.60;51.70;;;;;;5033977;28;20238;-67
2021/04/13 13:23:16;;;;;;;3.10;2.27;;;12.80;51.40;;;;;;5033891;28;20650;-68
2021/04/13 13:25:43;;;;;;;2.57;2.30;;;13.10;50.50;;;;;;5033742;28;20717;-67
2021/04/13 13:28:17;;;;;;;3.77;2.30;;;13.60;48.70;;;;;;5034271;28;20202;-65
2021/04/13 13:30:44;;;;;;;2.87;1.80;;;14.20;47.20;;;;;;5033698;28;20688;-67
2021/04/13 13:33:10;;;;;;;3.10;1.87;;;14.60;42.90;;;;;;5034365;28;20218;-67
2021/04/13 13:35:37;;;;;;;3.17;1.83;;;14.60;40.70;;;;;;5034175;28;20223;-69
2021/04/13 13:38:03;;;;;;;3.40;1.70;;;14.40;40.50;;;;;;5033754;28;20240;-67